createdAt,value
2024-04-24T00:02:01.214Z,98499.90
2024-04-24T00:04:28.983Z,98492.42
2024-04-24T00:06:56.729Z,98479.55
2024-04-24T00:09:24.402Z,98469.83
2024-04-24T00:11:52.410Z,98462.00
2024-04-24T00:14:21.663Z,98457.13
2024-04-24T00:16:49.372Z,98460.60
2024-04-24T00:19:17.059Z,98455.55
2024-04-24T00:21:44.742Z,98454.85
2024-04-24T00:24:16.783Z,98449.30
2024-04-24T00:26:44.847Z,98449.33
2024-04-24T00:29:12.516Z,98442.58
2024-04-24T00:31:40.186Z,98447.62
2024-04-24T00:34:08.734Z,98443.61
2024-04-24T00:36:36.404Z,98439.26
2024-04-24T00:39:04.113Z,98438.38
2024-04-24T00:41:31.766Z,98437.70
2024-04-24T00:43:59.516Z,98433.69
2024-04-24T00:46:29.852Z,98432.63
2024-04-24T00:48:59.665Z,98424.66
2024-04-24T00:51:28.606Z,98418.41
2024-04-24T00:53:56.343Z,98413.92
2024-04-24T00:56:24.545Z,98413.77
2024-04-24T00:58:52.863Z,98409.79
2024-04-24T01:01:21.306Z,98409.98
2024-04-24T01:03:49.536Z,98407.88
2024-04-24T01:06:17.249Z,98403.71
2024-04-24T01:08:44.964Z,98398.02
2024-04-24T01:11:12.872Z,98393.52
2024-04-24T01:13:40.658Z,98392.85
2024-04-24T01:16:17.780Z,98390.27
2024-04-24T01:19:08.205Z,98382.80
2024-04-24T01:22:01.856Z,98381.62
2024-04-24T01:24:37.383Z,98375.54
2024-04-24T01:27:05.275Z,98370.89
2024-04-24T01:29:33.268Z,98363.80
2024-04-24T01:32:01.099Z,98362.38
2024-04-24T01:34:28.799Z,98358.88
2024-04-24T01:36:56.509Z,98356.45
2024-04-24T01:39:24.263Z,98355.76
2024-04-24T01:41:52.033Z,98351.75
2024-04-24T01:44:19.746Z,98349.65
2024-04-24T01:46:47.647Z,98341.66
2024-04-24T01:49:15.411Z,98339.07
2024-04-24T01:51:43.174Z,98335.42
2024-04-24T01:54:10.824Z,98335.29
2024-04-24T01:56:38.603Z,98332.67
2024-04-24T01:59:06.326Z,98327.44
2024-04-24T02:01:34.024Z,98326.40
2024-04-24T02:04:01.828Z,98323.48
2024-04-24T02:06:29.484Z,98319.83
2024-04-24T02:08:57.320Z,98312.02
2024-04-24T02:11:25.057Z,98309.91
2024-04-24T02:13:53.033Z,98304.20
2024-04-24T02:16:20.698Z,98299.70
2024-04-24T02:18:48.527Z,98299.70
2024-04-24T02:21:16.301Z,98299.23
2024-04-24T02:23:43.973Z,98295.08
2024-04-24T02:26:12.114Z,98295.91
2024-04-24T02:28:39.867Z,98292.98
2024-04-24T02:31:07.632Z,98293.16
2024-04-24T02:33:35.856Z,98287.25
2024-04-24T02:36:03.969Z,98288.30
2024-04-24T02:38:31.678Z,98283.06
2024-04-24T02:40:59.561Z,98280.84
2024-04-24T02:43:27.400Z,98276.34
2024-04-24T02:45:55.884Z,98276.55
2024-04-24T02:48:23.764Z,98274.84
2024-04-24T02:50:51.495Z,98270.33
2024-04-24T02:53:19.235Z,98269.29
2024-04-24T02:55:47.155Z,98264.80
2024-04-24T02:58:14.791Z,98263.63
2024-04-24T03:00:42.483Z,98255.70
2024-04-24T03:03:10.381Z,98253.83
2024-04-24T03:05:38.355Z,98255.07
2024-04-24T03:08:06.260Z,98251.82
2024-04-24T03:10:33.903Z,98247.16
2024-04-24T03:13:01.582Z,98248.13
2024-04-24T03:15:29.202Z,98242.58
2024-04-24T03:17:57.028Z,98240.84
2024-04-24T03:20:24.939Z,98238.06
2024-04-24T03:22:52.828Z,98231.13
2024-04-24T03:25:20.516Z,98230.98
2024-04-24T03:27:48.272Z,98228.58
2024-04-24T03:30:15.978Z,98224.44
2024-04-24T03:32:43.831Z,98220.63
2024-04-24T03:35:11.694Z,98216.95
2024-04-24T03:37:39.892Z,98214.49
2024-04-24T03:40:08.193Z,98213.98
2024-04-24T03:42:37.864Z,98214.51
2024-04-24T03:45:06.030Z,98213.80
2024-04-24T03:47:33.939Z,98214.31
2024-04-24T03:50:01.840Z,98214.70
2024-04-24T03:52:29.619Z,98210.88
2024-04-24T03:54:57.302Z,98209.85
2024-04-24T03:57:25.065Z,98204.08
2024-04-24T03:59:52.779Z,98202.15
2024-04-24T04:02:20.554Z,98201.98
2024-04-24T04:04:48.335Z,98200.27
2024-04-24T04:07:16.195Z,98201.67
2024-04-24T04:09:44.788Z,98196.50
2024-04-24T04:12:13.555Z,98197.44
2024-04-24T04:14:41.642Z,98193.47
2024-04-24T04:17:10.216Z,98192.05
2024-04-24T04:19:38.397Z,98188.21
2024-04-24T04:22:06.161Z,98191.96
2024-04-24T04:24:33.945Z,98184.85
2024-04-24T04:27:02.112Z,98181.70
2024-04-24T04:29:29.976Z,98183.42
2024-04-24T04:31:57.791Z,98181.87
2024-04-24T04:34:26.306Z,98179.10
2024-04-24T04:36:54.200Z,98178.09
2024-04-24T04:39:21.887Z,98176.90
2024-04-24T04:41:49.707Z,98174.67
2024-04-24T04:44:17.606Z,98178.00
2024-04-24T04:46:45.515Z,98177.31
2024-04-24T04:49:13.586Z,98171.77
2024-04-24T04:51:41.317Z,98170.39
2024-04-24T04:54:09.015Z,98169.20
2024-04-24T04:56:36.800Z,98165.91
2024-04-24T04:59:04.508Z,98166.52
2024-04-24T05:01:32.291Z,98170.60
2024-04-24T05:04:00.032Z,98166.91
2024-04-24T05:06:28.208Z,98167.52
2024-04-24T05:08:55.913Z,98162.02
2024-04-24T05:11:23.740Z,98164.66
2024-04-24T05:13:51.611Z,98160.81
2024-04-24T05:16:19.382Z,98160.84
2024-04-24T05:18:47.501Z,98156.50
2024-04-24T05:21:15.278Z,98155.14
2024-04-24T05:23:42.983Z,98153.58
2024-04-24T05:26:29.087Z,98153.06
2024-04-24T05:29:07.778Z,98152.20
2024-04-24T05:31:36.998Z,98154.30
2024-04-24T05:34:05.339Z,98153.48
2024-04-24T05:36:33.393Z,98151.02
2024-04-24T05:39:01.177Z,98149.25
2024-04-24T05:41:28.936Z,98152.20
2024-04-24T05:43:56.691Z,98150.99
2024-04-24T05:46:24.403Z,98147.88
2024-04-24T05:48:52.257Z,98146.48
2024-04-24T05:51:20.142Z,98142.67
2024-04-24T05:53:47.830Z,98140.27
2024-04-24T05:56:15.674Z,98140.51
2024-04-24T05:58:44.811Z,98138.83
2024-04-24T06:01:12.537Z,98137.80
2024-04-24T06:03:40.278Z,98137.27
2024-04-24T06:06:07.974Z,98136.75
2024-04-24T06:08:35.699Z,98132.96
2024-04-24T06:11:03.630Z,98132.62
2024-04-24T06:13:31.444Z,98133.68
2024-04-24T06:15:59.186Z,98131.80
2024-04-24T06:18:26.954Z,98135.44
2024-04-24T06:20:54.668Z,98132.65
2024-04-24T06:23:22.469Z,98130.24
2024-04-24T06:25:50.225Z,98128.55
2024-04-24T06:28:17.986Z,98124.41
2024-04-24T06:30:45.686Z,98122.36
2024-04-24T06:33:13.691Z,98123.05
2024-04-24T06:35:41.691Z,98122.38
2024-04-24T06:38:09.655Z,98115.42
2024-04-24T06:40:37.539Z,98116.13
2024-04-24T06:43:05.312Z,98115.48
2024-04-24T06:45:32.964Z,98114.49
2024-04-24T06:48:01.167Z,98115.52
2024-04-24T06:50:29.176Z,98110.32
2024-04-24T06:52:57.247Z,98106.45
2024-04-24T06:55:27.175Z,98105.37
2024-04-24T06:57:57.555Z,98104.96
2024-04-24T07:00:29.149Z,98102.68
2024-04-24T07:02:58.039Z,98107.34
2024-04-24T07:05:25.820Z,98103.12
2024-04-24T07:07:53.654Z,98102.05
2024-04-24T07:10:21.418Z,98098.43
2024-04-24T07:12:49.495Z,98092.38
2024-04-24T07:15:17.327Z,98094.09
2024-04-24T07:17:45.421Z,98096.11
2024-04-24T07:20:13.338Z,98096.20
2024-04-24T07:22:41.092Z,98096.73
2024-04-24T07:25:08.777Z,98095.30
2024-04-24T07:27:36.564Z,98089.80
2024-04-24T07:30:07.012Z,98085.09
2024-04-24T07:32:35.002Z,98084.50
2024-04-24T07:35:02.995Z,98082.49
2024-04-24T07:37:30.879Z,98081.19
2024-04-24T07:40:00.902Z,98079.90
2024-04-24T07:42:28.651Z,98077.80
2024-04-24T07:44:56.370Z,98076.20
2024-04-24T07:47:24.348Z,98076.33
2024-04-24T07:49:52.364Z,98077.37
2024-04-24T07:52:20.034Z,98075.27
2024-04-24T07:54:47.771Z,98073.18
2024-04-24T07:57:15.448Z,98067.58
2024-04-24T07:59:43.425Z,98065.50
2024-04-24T08:02:11.124Z,98067.02
2024-04-24T08:04:38.843Z,98067.10
2024-04-24T08:07:06.621Z,98061.51
2024-04-24T08:09:34.243Z,98059.77
2024-04-24T08:12:02.146Z,98059.37
2024-04-24T08:14:30.441Z,98062.21
2024-04-24T08:16:58.368Z,98058.11
2024-04-24T08:19:26.012Z,98054.03
2024-04-24T08:21:53.782Z,98053.66
2024-04-24T08:24:21.420Z,98054.56
2024-04-24T08:26:49.159Z,98058.33
2024-04-24T08:29:16.926Z,98055.00
2024-04-24T08:31:44.742Z,98057.11
2024-04-24T08:34:12.513Z,98056.59
2024-04-24T08:36:42.989Z,98057.92
2024-04-24T08:39:15.843Z,98056.52
2024-04-24T08:41:44.258Z,98056.92
2024-04-24T08:44:13.882Z,98059.06
2024-04-24T08:46:43.644Z,98057.98
2024-04-24T08:49:11.835Z,98060.89
2024-04-24T08:51:43.128Z,98058.23
2024-04-24T08:54:20.091Z,98058.02
2024-04-24T08:57:00.272Z,98056.65
2024-04-24T08:59:32.858Z,98058.39
2024-04-24T09:02:06.159Z,98056.65
2024-04-24T09:04:35.963Z,98058.28
2024-04-24T09:07:04.736Z,98060.73
2024-04-24T09:09:33.371Z,98059.31
2024-04-24T09:12:02.904Z,98059.86
2024-04-24T09:14:32.624Z,98052.80
2024-04-24T09:17:01.883Z,98053.16
2024-04-24T09:19:30.438Z,98050.52
2024-04-24T09:21:58.146Z,98049.49
2024-04-24T09:24:25.919Z,98048.48
2024-04-24T09:26:55.578Z,98046.73
2024-04-24T09:29:24.037Z,98044.07
2024-04-24T09:31:51.880Z,98043.59
2024-04-24T09:34:19.798Z,98037.02
2024-04-24T09:36:48.699Z,98040.28
2024-04-24T09:39:17.962Z,98035.89
2024-04-24T09:41:49.475Z,98038.34
2024-04-24T09:44:17.445Z,98042.63
2024-04-24T09:46:55.663Z,98042.76
2024-04-24T09:49:24.185Z,98041.38
2024-04-24T09:51:52.041Z,98039.27
2024-04-24T09:54:22.494Z,98035.91
2024-04-24T09:56:55.392Z,98034.34
2024-04-24T09:59:30.726Z,98030.25
2024-04-24T10:02:13.166Z,98030.41
2024-04-24T10:04:48.509Z,98029.80
2024-04-24T10:09:49.264Z,98030.64
2024-04-24T10:12:30.606Z,98025.77
2024-04-24T10:15:12.829Z,98025.73
2024-04-24T10:17:42.941Z,98022.44
2024-04-24T10:20:19.522Z,98021.91
2024-04-24T10:22:54.946Z,98024.14
2024-04-24T10:25:24.280Z,98023.98
2024-04-24T10:27:53.178Z,98026.77
2024-04-24T10:30:21.613Z,98019.55
2024-04-24T10:32:49.541Z,98022.90
2024-04-24T10:35:20.540Z,98022.43
2024-04-24T10:37:53.795Z,98019.34
2024-04-24T10:40:28.697Z,98022.92
2024-04-24T10:43:00.365Z,98025.47
2024-04-24T10:45:28.888Z,98023.17
2024-04-24T10:47:57.479Z,98019.16
2024-04-24T10:50:29.328Z,98019.14
2024-04-24T10:52:57.578Z,98013.20
2024-04-24T10:55:25.474Z,98014.89
2024-04-24T10:57:54.690Z,98011.73
2024-04-24T11:00:23.915Z,98010.50
2024-04-24T11:03:00.439Z,98009.48
2024-04-24T11:05:36.868Z,98010.61
2024-04-24T11:08:06.111Z,98012.98
2024-04-24T11:10:35.146Z,98010.67
2024-04-24T11:13:13.982Z,98007.99
2024-04-24T11:15:45.353Z,98005.85
2024-04-24T11:18:18.794Z,98005.88
2024-04-24T11:20:46.689Z,98002.88
2024-04-24T11:23:14.661Z,98002.46
2024-04-24T11:25:57.992Z,98003.16
2024-04-24T11:28:28.031Z,98004.84
2024-04-24T11:30:56.276Z,98004.46
2024-04-24T11:33:24.651Z,98005.26
2024-04-24T11:35:53.548Z,98011.15
2024-04-24T11:38:21.385Z,98013.92
2024-04-24T11:40:49.187Z,98013.77
2024-04-24T11:43:17.839Z,98012.70
2024-04-24T11:45:46.207Z,98011.29
2024-04-24T11:48:14.078Z,98010.02
2024-04-24T11:50:42.024Z,98008.93
2024-04-24T11:53:10.025Z,98005.27
2024-04-24T11:55:37.745Z,98009.42
2024-04-24T11:58:14.977Z,98010.80
2024-04-24T12:00:42.906Z,98012.02
2024-04-24T12:03:10.954Z,98012.23
2024-04-24T12:05:40.115Z,98009.15
2024-04-24T12:08:09.795Z,98005.27
2024-04-24T12:10:37.662Z,98005.37
2024-04-24T12:13:05.596Z,98004.11
2024-04-24T12:15:33.339Z,98008.60
2024-04-24T12:18:01.166Z,98003.73
2024-04-24T12:20:28.978Z,98004.83
2024-04-24T12:22:56.784Z,98001.01
2024-04-24T12:25:24.456Z,98004.74
2024-04-24T12:27:52.317Z,98002.55
2024-04-24T12:30:20.099Z,97999.86
2024-04-24T12:32:48.375Z,97998.27
2024-04-24T12:35:16.200Z,97998.88
2024-04-24T12:37:43.931Z,97998.33
2024-04-24T12:40:13.847Z,97993.91
2024-04-24T12:42:41.708Z,97994.71
2024-04-24T12:45:09.767Z,97996.74
2024-04-24T12:47:37.879Z,97994.13
2024-04-24T12:50:06.022Z,97989.98
2024-04-24T12:52:34.053Z,97989.80
2024-04-24T12:55:01.798Z,97989.85
2024-04-24T12:57:29.492Z,97982.64
2024-04-24T12:59:57.207Z,97984.51
2024-04-24T13:02:25.098Z,97978.77
2024-04-24T13:04:52.890Z,97979.69
2024-04-24T13:07:20.582Z,97972.58
2024-04-24T13:09:49.463Z,97977.30
2024-04-24T13:12:20.390Z,97979.05
2024-04-24T13:14:49.769Z,97977.27
2024-04-24T13:17:17.628Z,97972.95
2024-04-24T13:19:45.520Z,97978.69
2024-04-24T13:22:13.217Z,97976.79
2024-04-24T13:24:40.927Z,97977.54
2024-04-24T13:27:08.587Z,97974.77
2024-04-24T13:29:36.281Z,97977.70
2024-04-24T13:32:04.071Z,97977.50
2024-04-24T13:34:31.972Z,97979.08
2024-04-24T13:36:59.744Z,97980.34
2024-04-24T13:39:27.389Z,97978.27
2024-04-24T13:41:55.162Z,97979.55
2024-04-24T13:44:22.900Z,97975.21
2024-04-24T13:46:50.622Z,97975.83
2024-04-24T13:49:18.361Z,97975.48
2024-04-24T13:51:46.151Z,97976.80
2024-04-24T13:54:16.350Z,97971.48
2024-04-24T13:56:44.905Z,97969.79
2024-04-24T13:59:14.033Z,97968.69
2024-04-24T14:01:41.950Z,97969.52
2024-04-24T14:04:09.805Z,97971.75
2024-04-24T14:06:37.618Z,97971.77
2024-04-24T14:09:05.422Z,97972.15
2024-04-24T14:11:33.175Z,97972.75
2024-04-24T14:14:01.121Z,97971.83
2024-04-24T14:16:28.910Z,97970.48
2024-04-24T14:18:56.684Z,97968.79
2024-04-24T14:21:24.358Z,97969.83
2024-04-24T14:23:52.061Z,97972.14
2024-04-24T14:26:20.232Z,97971.33
2024-04-24T14:28:48.019Z,97975.71
2024-04-24T14:31:15.856Z,97974.55
2024-04-24T14:33:43.639Z,97972.07
2024-04-24T14:36:11.434Z,97969.09
2024-04-24T14:38:39.184Z,97968.56
2024-04-24T14:41:08.899Z,97968.75
2024-04-24T14:43:37.566Z,97967.08
2024-04-24T14:46:06.141Z,97964.85
2024-04-24T14:48:33.937Z,97961.89
2024-04-24T14:51:02.214Z,97960.84
2024-04-24T14:53:29.908Z,97957.15
2024-04-24T14:55:58.888Z,97959.84
2024-04-24T14:58:26.823Z,97958.17
2024-04-24T15:00:55.596Z,97957.61
2024-04-24T15:03:24.958Z,97957.83
2024-04-24T15:05:52.807Z,97956.76
2024-04-24T15:08:20.669Z,97955.70
2024-04-24T15:10:49.899Z,97955.59
2024-04-24T15:13:17.645Z,97953.08
2024-04-24T15:15:47.291Z,97952.77
2024-04-24T15:18:15.116Z,97953.20
2024-04-24T15:20:42.954Z,97949.75
2024-04-24T15:23:12.318Z,97946.88
2024-04-24T15:25:43.390Z,97947.48
2024-04-24T15:28:11.109Z,97944.58
2024-04-24T15:30:38.805Z,97945.84
2024-04-24T15:33:06.817Z,97943.96
2024-04-24T15:35:34.875Z,97949.33
2024-04-24T15:38:02.693Z,97949.13
2024-04-24T15:40:30.418Z,97946.83
2024-04-24T15:42:58.153Z,97945.81
2024-04-24T15:45:27.015Z,97940.23
2024-04-24T15:47:54.933Z,97943.05
2024-04-24T15:50:22.756Z,97939.40
2024-04-24T15:52:50.475Z,97938.23
2024-04-24T15:55:18.133Z,97938.70
2024-04-24T15:57:45.804Z,97937.39
2024-04-24T16:00:13.847Z,97939.77
2024-04-24T16:02:44.102Z,97938.33
2024-04-24T16:05:14.458Z,97942.06
2024-04-24T16:07:42.472Z,97938.17
2024-04-24T16:10:10.765Z,97938.67
2024-04-24T16:12:38.511Z,97942.26
2024-04-24T16:15:06.759Z,97941.02
2024-04-24T16:17:34.569Z,97941.82
2024-04-24T16:20:02.721Z,97940.30
2024-04-24T16:22:30.670Z,97940.34
2024-04-24T16:24:58.449Z,97943.56
2024-04-24T16:27:26.154Z,97941.92
2024-04-24T16:29:53.835Z,97940.17
2024-04-24T16:32:22.300Z,97942.26
2024-04-24T16:34:50.110Z,97941.20
2024-04-24T16:37:17.895Z,97942.38
2024-04-24T16:39:47.004Z,97939.92
2024-04-24T16:42:14.787Z,97941.83
2024-04-24T16:44:42.549Z,97945.13
2024-04-24T16:47:11.764Z,97946.32
2024-04-24T16:49:40.380Z,97946.08
2024-04-24T16:52:11.150Z,97948.83
2024-04-24T16:54:39.568Z,97947.45
2024-04-24T16:57:08.220Z,97949.54
2024-04-24T16:59:36.093Z,97946.81
2024-04-24T17:02:03.849Z,97944.06
2024-04-24T17:04:33.176Z,97946.15
2024-04-24T17:07:00.990Z,97948.34
2024-04-24T17:09:29.636Z,97946.75
2024-04-24T17:11:58.044Z,97948.09
2024-04-24T17:14:27.599Z,97950.90
2024-04-24T17:16:55.405Z,97948.87
2024-04-24T17:19:23.304Z,97946.67
2024-04-24T17:21:51.312Z,97947.02
2024-04-24T17:24:21.863Z,97945.94
2024-04-24T17:26:52.843Z,97945.78
2024-04-24T17:29:20.720Z,97947.06
2024-04-24T17:31:48.424Z,97944.84
2024-04-24T17:34:21.471Z,97950.63
2024-04-24T17:36:49.113Z,97951.04
2024-04-24T17:39:17.509Z,97949.88
2024-04-24T17:41:45.411Z,97948.68
2024-04-24T17:44:13.351Z,97955.06
2024-04-24T17:46:41.251Z,97954.96
2024-04-24T17:49:08.983Z,97955.14
2024-04-24T17:51:37.467Z,97956.70
2024-04-24T17:54:05.323Z,97958.20
2024-04-24T17:56:34.322Z,97963.77
2024-04-24T17:59:02.165Z,97963.73
2024-04-24T18:01:29.913Z,97964.98
2024-04-24T18:03:57.609Z,97969.38
2024-04-24T18:06:25.446Z,97972.17
2024-04-24T18:08:53.149Z,97971.48
2024-04-24T18:11:21.290Z,97976.83
2024-04-24T18:13:49.195Z,97974.91
2024-04-24T18:16:16.933Z,97980.59
2024-04-24T18:18:45.163Z,97983.33
2024-04-24T18:21:12.929Z,97985.54
2024-04-24T18:23:40.815Z,97991.16
2024-04-24T18:26:08.586Z,97990.57
2024-04-24T18:28:36.342Z,97995.15
2024-04-24T18:31:04.225Z,97996.04
2024-04-24T18:33:32.013Z,98000.52
2024-04-24T18:36:00.241Z,98004.86
2024-04-24T18:38:28.389Z,98004.84
2024-04-24T18:40:56.201Z,98004.55
2024-04-24T18:43:23.902Z,98007.21
2024-04-24T18:45:51.627Z,98008.16
2024-04-24T18:48:20.597Z,98012.79
2024-04-24T18:50:48.411Z,98014.23
2024-04-24T18:53:16.197Z,98017.48
2024-04-24T18:55:44.850Z,98022.05
2024-04-24T18:58:12.656Z,98027.01
2024-04-24T19:00:40.913Z,98023.90
2024-04-24T19:03:08.786Z,98028.70
2024-04-24T19:05:36.683Z,98024.80
2024-04-24T19:08:05.124Z,98026.73
2024-04-24T19:10:32.843Z,98029.57
2024-04-24T19:13:00.563Z,98027.86
2024-04-24T19:15:29.391Z,98032.91
2024-04-24T19:17:57.171Z,98030.66
2024-04-24T19:20:25.259Z,98031.12
2024-04-24T19:22:53.181Z,98026.90
2024-04-24T19:25:21.012Z,98031.98
2024-04-24T19:27:48.774Z,98031.68
2024-04-24T19:30:16.588Z,98036.02
2024-04-24T19:32:44.471Z,98033.67
2024-04-24T19:35:12.390Z,98033.45
2024-04-24T19:37:40.270Z,98034.69
2024-04-24T19:40:08.635Z,98034.38
2024-04-24T19:42:36.436Z,98031.75
2024-04-24T19:45:04.471Z,98032.39
2024-04-24T19:47:32.196Z,98035.95
2024-04-24T19:50:01.163Z,98033.52
2024-04-24T19:52:29.031Z,98037.89
2024-04-24T19:54:56.715Z,98033.83
2024-04-24T19:57:24.373Z,98034.08
2024-04-24T19:59:52.115Z,98034.63
2024-04-24T20:02:21.240Z,98035.67
2024-04-24T20:04:50.109Z,98033.06
2024-04-24T20:07:17.816Z,98039.69
2024-04-24T20:09:46.237Z,98039.33
2024-04-24T20:12:14.011Z,98038.81
2024-04-24T20:14:42.000Z,98043.91
2024-04-24T20:17:10.112Z,98040.58
2024-04-24T20:19:38.171Z,98042.07
2024-04-24T20:22:06.105Z,98041.49
2024-04-24T20:24:33.827Z,98038.95
2024-04-24T20:27:01.522Z,98037.96
2024-04-24T20:29:29.400Z,98040.24
2024-04-24T20:31:57.153Z,98043.60
2024-04-24T20:34:28.322Z,98045.39
2024-04-24T20:36:56.398Z,98045.94
2024-04-24T20:39:24.228Z,98048.20
2024-04-24T20:41:51.863Z,98050.82
2024-04-24T20:44:22.104Z,98051.23
2024-04-24T20:46:49.873Z,98052.81
2024-04-24T20:49:17.612Z,98051.07
2024-04-24T20:51:45.460Z,98053.86
2024-04-24T20:54:13.270Z,98052.80
2024-04-24T20:56:40.959Z,98050.70
2024-04-24T20:59:09.208Z,98048.80
2024-04-24T21:01:38.518Z,98052.84
2024-04-24T21:04:06.979Z,98051.27
2024-04-24T21:06:36.187Z,98053.42
2024-04-24T21:09:03.926Z,98054.55
2024-04-24T21:11:31.742Z,98055.08
2024-04-24T21:13:59.546Z,98056.00
2024-04-24T21:16:27.283Z,98055.34
2024-04-24T21:18:55.461Z,98055.20
2024-04-24T21:21:23.561Z,98057.32
2024-04-24T21:23:52.086Z,98056.80
2024-04-24T21:26:19.907Z,98054.48
2024-04-24T21:28:48.274Z,98058.66
2024-04-24T21:31:16.002Z,98059.95
2024-04-24T21:33:43.740Z,98056.55
2024-04-24T21:36:11.490Z,98058.38
2024-04-24T21:38:39.386Z,98058.79
2024-04-24T21:41:20.135Z,98058.96
2024-04-24T21:43:49.274Z,98057.38
2024-04-24T21:46:19.569Z,98059.16
2024-04-24T21:48:47.427Z,98058.21
2024-04-24T21:51:15.192Z,98057.63
2024-04-24T21:53:43.120Z,98058.83
2024-04-24T21:56:10.917Z,98065.58
2024-04-24T21:58:39.947Z,98067.40
2024-04-24T22:01:09.002Z,98065.38
2024-04-24T22:03:36.988Z,98066.46
2024-04-24T22:06:05.715Z,98069.98
2024-04-24T22:08:33.519Z,98069.66
2024-04-24T22:11:01.502Z,98071.42
2024-04-24T22:13:29.413Z,98072.51
2024-04-24T22:15:57.110Z,98073.09
2024-04-24T22:18:24.995Z,98068.98
2024-04-24T22:20:52.833Z,98070.02
2024-04-24T22:23:20.548Z,98070.22
2024-04-24T22:25:48.310Z,98071.42
2024-04-24T22:28:16.068Z,98078.21
2024-04-24T22:30:43.940Z,98074.63
2024-04-24T22:33:11.680Z,98076.06
2024-04-24T22:35:39.801Z,98075.23
2024-04-24T22:38:09.402Z,98076.99
2024-04-24T22:40:37.257Z,98075.95
2024-04-24T22:43:05.085Z,98077.67
2024-04-24T22:45:32.868Z,98079.21
2024-04-24T22:48:00.743Z,98078.02
2024-04-24T22:50:28.715Z,98079.45
2024-04-24T22:52:56.507Z,98084.65
2024-04-24T22:55:24.220Z,98085.82
2024-04-24T22:57:51.894Z,98084.77
2024-04-24T23:00:19.712Z,98079.91
2024-04-24T23:02:47.819Z,98082.52
2024-04-24T23:05:15.870Z,98077.72
2024-04-24T23:07:43.731Z,98078.94
2024-04-24T23:10:11.595Z,98078.89
2024-04-24T23:12:39.351Z,98075.57
2024-04-24T23:15:07.291Z,98074.55
2024-04-24T23:17:35.112Z,98076.46
2024-04-24T23:20:03.228Z,98075.30
2024-04-24T23:22:31.029Z,98077.21
2024-04-24T23:24:58.877Z,98079.50
2024-04-24T23:27:26.519Z,98080.58
2024-04-24T23:29:54.270Z,98081.97
2024-04-24T23:32:22.010Z,98080.46
2024-04-24T23:34:49.796Z,98083.61
2024-04-24T23:37:17.443Z,98082.55
2024-04-24T23:39:45.202Z,98084.48
2024-04-24T23:42:12.838Z,98086.55
2024-04-24T23:44:40.619Z,98088.27
2024-04-24T23:47:08.412Z,98093.16
2024-04-24T23:49:36.232Z,98093.36
2024-04-24T23:52:04.045Z,98094.41
2024-04-24T23:54:31.772Z,98099.94
2024-04-24T23:56:59.414Z,98097.49
2024-04-24T23:59:27.132Z,98098.52
